Time;durP1;ratioP1;P1;durP2;ratioP2;P2;SDS_P1;SDS_P2;PMS_P1;PMS_P2;Temp;Humidity;BMP_temperature;BMP_pressure;BME280_temperature;BME280_humidity;BME280_pressure;Samples;Min_cycle;Max_cycle;Signal;HPM_P1;HPM_P2
2023/12/29 00:00:38;;;;;;;1.25;1.08;;;12.20;39.00;;;;;;5034104;28;20178;-48
2023/12/29 00:03:04;;;;;;;2.57;1.57;;;12.20;39.00;;;;;;5034421;28;20173;-54
2023/12/29 00:05:30;;;;;;;1.00;0.60;;;12.20;38.90;;;;;;5033976;28;20256;-50
2023/12/29 00:07:56;;;;;;;1.00;0.60;;;12.20;38.90;;;;;;5033720;28;20436;-49
2023/12/29 00:10:23;;;;;;;1.10;0.85;;;12.10;38.90;;;;;;5033783;28;20206;-49
2023/12/29 00:12:49;;;;;;;1.03;0.67;;;12.10;38.80;;;;;;5033901;28;20219;-51
2023/12/29 00:15:18;;;;;;;1.00;0.60;;;12.00;38.90;;;;;;5033743;28;20257;-47
2023/12/29 00:17:45;;;;;;;1.10;0.80;;;12.00;38.90;;;;;;5033614;28;20244;-50
2023/12/29 00:20:11;;;;;;;1.90;1.15;;;12.00;38.80;;;;;;5033497;28;20178;-49
2023/12/29 00:22:36;;;;;;;2.38;1.63;;;11.90;38.80;;;;;;5033631;28;20243;-46
2023/12/29 00:25:02;;;;;;;1.00;0.60;;;11.80;39.00;;;;;;5033688;28;20610;-46
2023/12/29 00:27:28;;;;;;;0.90;0.47;;;11.80;39.00;;;;;;5033493;28;20214;-51
2023/12/29 00:29:54;;;;;;;1.00;0.70;;;11.70;38.90;;;;;;5033285;28;20182;-49
2023/12/29 00:32:20;;;;;;;1.20;1.00;;;11.60;39.50;;;;;;5033214;28;20468;-48
2023/12/29 00:34:46;;;;;;;2.28;1.00;;;11.50;40.50;;;;;;5033242;28;20181;-50
2023/12/29 00:37:12;;;;;;;1.30;1.10;;;11.60;40.40;;;;;;5033364;28;20214;-52
2023/12/29 00:39:40;;;;;;;0.97;0.63;;;11.60;40.50;;;;;;5033090;28;20178;-49
2023/12/29 00:42:06;;;;;;;1.10;0.70;;;11.70;41.20;;;;;;5033275;28;20644;-47
2023/12/29 00:44:33;;;;;;;1.05;0.68;;;11.70;40.80;;;;;;5033278;28;20193;-50
2023/12/29 00:47:00;;;;;;;3.80;1.13;;;11.80;40.50;;;;;;5033545;28;20252;-51
2023/12/29 00:49:26;;;;;;;1.38;0.73;;;11.80;40.20;;;;;;5033013;28;20189;-49
2023/12/29 00:51:52;;;;;;;1.30;1.17;;;11.80;40.00;;;;;;5032706;28;20202;-49
2023/12/29 00:54:18;;;;;;;1.10;0.80;;;11.90;40.70;;;;;;5032944;28;20197;-52
2023/12/29 00:56:50;;;;;;;1.73;0.70;;;11.90;41.00;;;;;;5032910;28;20540;-53
2023/12/29 00:59:18;;;;;;;1.10;0.95;;;12.00;40.10;;;;;;5032796;28;20644;-52
2023/12/29 01:01:44;;;;;;;0.98;0.70;;;11.90;40.60;;;;;;5032853;28;20189;-48
2023/12/29 01:04:10;;;;;;;0.90;0.43;;;12.00;40.30;;;;;;5032635;28;20177;-50
2023/12/29 01:06:35;;;;;;;1.63;0.83;;;12.00;40.00;;;;;;5032649;28;20280;-50
2023/12/29 01:09:01;;;;;;;1.00;0.63;;;12.00;40.50;;;;;;5032662;28;20209;-47
2023/12/29 01:11:27;;;;;;;1.00;0.60;;;12.00;39.80;;;;;;5032773;28;20182;-46
2023/12/29 01:13:53;;;;;;;1.40;1.07;;;12.00;40.50;;;;;;5032576;28;20181;-50
2023/12/29 01:16:19;;;;;;;0.97;0.60;;;11.90;39.80;;;;;;5032601;28;20528;-52
2023/12/29 01:18:44;;;;;;;0.90;0.35;;;11.80;39.80;;;;;;5032502;28;20178;-49
2023/12/29 01:21:10;;;;;;;5.20;1.60;;;11.80;40.00;;;;;;5032610;28;20631;-52
2023/12/29 01:23:36;;;;;;;0.90;0.50;;;11.80;40.00;;;;;;5032897;28;20171;-51
2023/12/29 01:26:02;;;;;;;1.38;1.02;;;11.80;40.20;;;;;;5032565;28;20766;-51
2023/12/29 01:28:28;;;;;;;1.20;0.93;;;11.80;40.40;;;;;;5032662;28;20197;-47
2023/12/29 01:30:53;;;;;;;1.33;0.80;;;11.80;40.50;;;;;;5033288;28;20179;-48
2023/12/29 01:33:21;;;;;;;2.20;0.85;;;11.80;40.40;;;;;;5032754;28;20205;-49
2023/12/29 01:35:47;;;;;;;1.00;0.77;;;11.80;40.40;;;;;;5032198;28;20171;-54
2023/12/29 01:38:12;;;;;;;1.00;0.65;;;11.80;40.40;;;;;;5032360;28;20224;-54
2023/12/29 01:40:47;;;;;;;1.00;0.80;;;11.80;40.50;;;;;;5032394;28;20305;-50
2023/12/29 01:43:13;;;;;;;1.00;0.50;;;11.80;40.90;;;;;;5032603;28;20270;-49
2023/12/29 01:45:39;;;;;;;1.13;0.82;;;11.80;40.80;;;;;;5032365;28;20182;-48
2023/12/29 01:48:05;;;;;;;1.03;0.70;;;11.90;40.80;;;;;;5031995;28;20204;-46
2023/12/29 01:50:32;;;;;;;1.00;0.70;;;11.90;40.60;;;;;;5032099;28;20432;-51
2023/12/29 01:52:59;;;;;;;0.90;0.50;;;12.00;40.50;;;;;;5032074;28;20456;-47
2023/12/29 01:55:26;;;;;;;1.00;0.65;;;12.00;40.50;;;;;;5032231;28;20263;-51
2023/12/29 01:57:52;;;;;;;1.00;0.60;;;12.00;40.20;;;;;;5031902;28;20202;-51
2023/12/29 02:00:19;;;;;;;0.98;0.55;;;12.00;40.10;;;;;;5030663;28;20798;-53
2023/12/29 02:02:48;;;;;;;1.13;1.02;;;12.00;40.00;;;;;;5031067;28;20178;-46
2023/12/29 02:05:15;;;;;;;1.00;0.70;;;12.10;40.20;;;;;;5031908;28;20545;-50
2023/12/29 02:07:42;;;;;;;1.10;0.90;;;12.00;40.20;;;;;;5031743;28;20197;-54
2023/12/29 02:10:08;;;;;;;0.95;0.60;;;12.00;40.30;;;;;;5031738;28;20186;-49
2023/12/29 02:12:37;;;;;;;0.90;0.40;;;12.10;40.40;;;;;;5031669;28;20201;-52
2023/12/29 02:15:04;;;;;;;1.00;0.70;;;12.10;40.40;;;;;;5031804;28;20300;-47
2023/12/29 02:17:39;;;;;;;0.95;0.50;;;12.10;40.50;;;;;;5031618;28;20544;-48
2023/12/29 02:20:07;;;;;;;1.17;0.52;;;12.30;40.20;;;;;;5031892;28;20631;-50
2023/12/29 02:22:33;;;;;;;1.00;0.35;;;12.30;40.10;;;;;;5031897;28;20181;-48
2023/12/29 02:24:58;;;;;;;1.20;0.77;;;12.40;39.90;;;;;;5031923;28;20178;-45
2023/12/29 02:27:41;;;;;;;1.63;0.90;;;12.40;40.40;;;;;;5031561;28;20697;-50
2023/12/29 02:30:27;;;;;;;0.95;0.57;;;12.40;39.90;;;;;;5031449;28;20178;-54
2023/12/29 02:32:57;;;;;;;0.90;0.45;;;12.40;39.70;;;;;;5031595;28;20202;-50
2023/12/29 02:35:28;;;;;;;1.00;0.77;;;12.40;39.60;;;;;;5031770;28;20186;-54
2023/12/29 02:37:58;;;;;;;1.67;1.50;;;12.40;39.50;;;;;;5031493;28;20237;-48
2023/12/29 02:40:25;;;;;;;1.10;0.80;;;12.40;39.60;;;;;;5031466;28;20405;-51
2023/12/29 02:42:51;;;;;;;0.90;0.50;;;12.40;39.50;;;;;;5031458;28;20178;-48
2023/12/29 02:45:17;;;;;;;1.13;0.63;;;12.40;39.50;;;;;;5031851;28;20228;-46
2023/12/29 02:47:43;;;;;;;1.00;0.63;;;12.40;39.80;;;;;;5031674;28;20197;-50
2023/12/29 02:50:10;;;;;;;1.42;1.30;;;12.40;39.80;;;;;;5031486;28;20694;-54
2023/12/29 02:52:36;;;;;;;0.90;0.50;;;12.40;39.70;;;;;;5031311;28;20198;-49
2023/12/29 02:55:03;;;;;;;0.90;0.43;;;12.40;39.70;;;;;;5031715;28;20257;-51
2023/12/29 02:57:29;;;;;;;1.30;0.80;;;12.40;39.90;;;;;;5031535;28;20437;-49
2023/12/29 02:59:55;;;;;;;0.98;0.60;;;12.40;39.80;;;;;;5031174;28;20178;-48
2023/12/29 03:02:22;;;;;;;1.00;0.73;;;12.40;40.10;;;;;;5031422;28;20663;-47
2023/12/29 03:04:48;;;;;;;1.25;1.05;;;12.40;40.20;;;;;;5031337;28;20182;-52
2023/12/29 03:07:13;;;;;;;1.20;0.70;;;12.40;40.00;;;;;;5031334;28;20273;-47
2023/12/29 03:09:39;;;;;;;1.07;0.87;;;12.40;40.20;;;;;;5031173;28;20671;-49
2023/12/29 03:12:05;;;;;;;1.00;0.60;;;12.50;40.10;;;;;;5031346;28;20198;-52
2023/12/29 03:14:31;;;;;;;1.95;1.67;;;12.50;40.10;;;;;;5032693;28;20174;-52
2023/12/29 03:16:57;;;;;;;0.90;0.30;;;12.50;40.00;;;;;;5034941;28;20197;-47
2023/12/29 03:19:23;;;;;;;1.20;0.40;;;12.50;39.90;;;;;;5034809;28;20500;-48
2023/12/29 03:21:49;;;;;;;1.00;0.80;;;12.60;39.90;;;;;;5034652;28;20265;-49
2023/12/29 03:24:15;;;;;;;0.90;0.50;;;12.60;39.70;;;;;;5034729;28;20178;-48
2023/12/29 03:26:40;;;;;;;0.90;0.40;;;12.60;39.60;;;;;;5034423;28;20452;-53
2023/12/29 03:29:06;;;;;;;0.90;0.50;;;12.60;39.50;;;;;;5034713;28;20181;-54
2023/12/29 03:31:32;;;;;;;0.90;0.50;;;12.60;39.50;;;;;;5034626;28;20499;-48
2023/12/29 03:33:58;;;;;;;1.10;0.60;;;12.60;39.40;;;;;;5034555;28;20932;-55
2023/12/29 03:36:24;;;;;;;1.10;0.80;;;12.50;39.60;;;;;;5034401;28;20514;-52
2023/12/29 03:38:49;;;;;;;1.10;0.93;;;12.50;39.60;;;;;;5034199;28;20182;-48
2023/12/29 03:41:15;;;;;;;0.90;0.40;;;12.50;39.60;;;;;;5034650;28;20177;-46
2023/12/29 03:43:41;;;;;;;0.90;0.50;;;12.50;39.50;;;;;;5034403;28;20178;-51
2023/12/29 03:46:23;;;;;;;1.00;0.53;;;12.50;39.40;;;;;;5034309;28;20210;-53
2023/12/29 03:48:49;;;;;;;0.85;0.35;;;12.50;39.40;;;;;;5034295;28;20412;-48
2023/12/29 03:51:15;;;;;;;0.90;0.50;;;12.40;39.70;;;;;;5034120;28;20220;-52
2023/12/29 03:53:41;;;;;;;1.05;0.75;;;12.40;39.70;;;;;;5034133;28;20926;-48
2023/12/29 03:56:18;;;;;;;0.90;0.60;;;12.30;39.70;;;;;;5034047;28;20186;-48
2023/12/29 03:58:45;;;;;;;0.80;0.30;;;12.30;39.80;;;;;;5034007;28;20266;-54
2023/12/29 04:01:15;;;;;;;1.00;0.57;;;12.30;39.90;;;;;;5034077;28;20174;-50
2023/12/29 04:03:41;;;;;;;1.10;0.70;;;12.30;39.70;;;;;;5033985;28;20170;-50
2023/12/29 04:06:08;;;;;;;0.80;0.30;;;12.20;39.60;;;;;;5034131;28;20182;-48
2023/12/29 04:08:34;;;;;;;0.90;0.60;;;12.10;39.60;;;;;;5033784;28;20220;-49
2023/12/29 04:11:00;;;;;;;1.00;0.50;;;12.00;39.80;;;;;;5017761;28;20666;-49
2023/12/29 04:13:26;;;;;;;0.88;0.40;;;11.90;39.90;;;;;;5033778;28;20399;-47
2023/12/29 04:15:52;;;;;;;3.72;1.23;;;11.70;41.00;;;;;;5033822;28;20779;-46
2023/12/29 04:18:21;;;;;;;0.90;0.50;;;11.70;41.80;;;;;;5033676;28;20214;-50
2023/12/29 04:20:47;;;;;;;1.00;0.43;;;11.80;41.90;;;;;;5033610;28;20173;-48
2023/12/29 04:23:13;;;;;;;1.47;0.90;;;11.90;41.70;;;;;;5033642;28;20335;-52
2023/12/29 04:25:39;;;;;;;1.00;0.55;;;12.00;41.10;;;;;;5032875;28;20428;-50
2023/12/29 04:28:06;;;;;;;0.90;0.52;;;12.10;41.00;;;;;;5033196;28;20308;-50
2023/12/29 04:30:32;;;;;;;0.90;0.50;;;12.10;41.20;;;;;;5033485;28;20182;-48
2023/12/29 04:32:58;;;;;;;1.10;0.70;;;12.00;41.90;;;;;;5033328;28;20210;-51
2023/12/29 04:35:23;;;;;;;0.90;0.30;;;12.10;42.50;;;;;;5033395;28;20205;-49
2023/12/29 04:37:49;;;;;;;1.13;0.68;;;12.20;41.90;;;;;;5033072;28;20217;-48
2023/12/29 04:40:16;;;;;;;0.95;0.55;;;12.30;41.80;;;;;;5033327;28;20192;-55
2023/12/29 04:42:41;;;;;;;0.90;0.30;;;12.40;41.60;;;;;;5033204;28;20185;-49
2023/12/29 04:45:07;;;;;;;0.93;0.50;;;12.50;41.50;;;;;;5033274;28;20178;-50
2023/12/29 04:47:33;;;;;;;0.90;0.40;;;12.60;41.10;;;;;;5033097;28;20606;-56
2023/12/29 04:49:59;;;;;;;0.90;0.40;;;12.60;41.00;;;;;;5032932;28;20235;-47
2023/12/29 04:52:24;;;;;;;1.00;0.60;;;12.70;40.70;;;;;;5033035;28;20210;-49
2023/12/29 04:54:50;;;;;;;1.00;0.60;;;12.80;40.40;;;;;;5032941;28;20181;-51
2023/12/29 04:57:16;;;;;;;1.00;0.43;;;12.80;40.20;;;;;;5033040;28;20288;-49
2023/12/29 04:59:42;;;;;;;1.87;0.57;;;12.90;40.20;;;;;;5032885;28;20176;-48
2023/12/29 05:02:07;;;;;;;0.90;0.40;;;12.90;40.10;;;;;;5032990;28;20447;-53
2023/12/29 05:04:33;;;;;;;1.00;0.63;;;12.90;39.90;;;;;;5033053;28;20644;-50
2023/12/29 05:06:59;;;;;;;0.93;0.57;;;12.90;39.60;;;;;;5032713;28;20202;-50
2023/12/29 05:09:25;;;;;;;0.90;0.50;;;12.80;39.50;;;;;;5032624;28;20503;-50
2023/12/29 05:11:50;;;;;;;1.10;0.60;;;12.80;39.60;;;;;;5032553;28;20255;-49
2023/12/29 05:14:16;;;;;;;1.00;0.53;;;12.70;39.60;;;;;;5032779;28;20185;-50
2023/12/29 05:16:42;;;;;;;1.43;0.70;;;12.70;39.60;;;;;;5032612;28;20198;-51
2023/12/29 05:19:08;;;;;;;1.00;0.70;;;12.70;39.60;;;;;;5032723;28;20185;-49
2023/12/29 05:21:34;;;;;;;0.90;0.50;;;12.60;39.50;;;;;;5032694;28;20539;-46
2023/12/29 05:24:00;;;;;;;0.90;0.40;;;12.60;39.50;;;;;;5024276;28;20422;-50
2023/12/29 05:26:25;;;;;;;2.70;0.83;;;12.60;39.40;;;;;;5032379;28;20190;-54
2023/12/29 05:28:51;;;;;;;0.90;0.50;;;12.60;39.30;;;;;;5032181;28;20733;-49
2023/12/29 05:31:17;;;;;;;0.90;0.43;;;12.60;39.30;;;;;;5032364;28;20232;-49
2023/12/29 05:33:44;;;;;;;1.00;0.60;;;12.60;39.00;;;;;;5032270;28;20663;-52
2023/12/29 05:36:10;;;;;;;0.90;0.40;;;12.60;39.00;;;;;;5032163;28;20439;-49
2023/12/29 05:38:41;;;;;;;2.60;1.23;;;12.70;39.20;;;;;;5031152;28;20539;-50
2023/12/29 05:41:07;;;;;;;1.00;0.68;;;12.70;38.70;;;;;;5035196;22;20564;-54
2023/12/29 05:43:34;;;;;;;1.00;0.73;;;12.70;38.70;;;;;;5012560;28;20186;-48
2023/12/29 05:46:00;;;;;;;1.27;0.73;;;12.70;39.00;;;;;;5012585;28;20181;-50
2023/12/29 05:48:27;;;;;;;1.00;0.60;;;12.80;38.80;;;;;;5012337;28;20206;-54
2023/12/29 05:50:53;;;;;;;0.95;0.40;;;12.80;38.90;;;;;;5012157;28;20190;-49
2023/12/29 05:53:19;;;;;;;0.93;0.47;;;12.80;38.70;;;;;;5012212;28;20308;-54
2023/12/29 05:55:45;;;;;;;0.97;0.50;;;12.80;38.60;;;;;;5012285;28;20257;-48
2023/12/29 05:58:11;;;;;;;1.00;0.70;;;12.70;38.80;;;;;;5012047;28;20492;-51
2023/12/29 06:00:39;;;;;;;1.05;0.77;;;12.70;39.00;;;;;;5012088;28;20743;-49
2023/12/29 06:03:05;;;;;;;1.00;0.60;;;12.70;39.30;;;;;;5012295;28;20257;-51
2023/12/29 06:05:32;;;;;;;1.00;0.60;;;12.70;39.40;;;;;;5012271;28;20265;-48
2023/12/29 06:07:57;;;;;;;1.20;0.68;;;12.80;39.20;;;;;;5011994;28;20914;-51
2023/12/29 06:10:23;;;;;;;1.70;0.90;;;12.70;39.50;;;;;;5012010;28;20237;-48
2023/12/29 06:12:49;;;;;;;0.95;0.50;;;12.70;39.90;;;;;;5011846;28;20194;-52
2023/12/29 06:15:15;;;;;;;1.00;0.70;;;12.70;40.00;;;;;;5012025;28;20185;-51
2023/12/29 06:17:41;;;;;;;1.00;0.60;;;12.80;39.90;;;;;;5012225;28;20179;-51
2023/12/29 06:20:09;;;;;;;0.90;0.50;;;12.80;39.70;;;;;;5011909;28;20198;-51
2023/12/29 06:22:42;;;;;;;1.15;0.68;;;12.90;39.70;;;;;;5012001;28;20182;-49
2023/12/29 06:25:11;;;;;;;1.00;0.65;;;12.70;39.70;;;;;;5011945;28;20178;-48
2023/12/29 06:27:38;;;;;;;0.90;0.50;;;12.80;39.80;;;;;;5012054;28;20179;-54
2023/12/29 06:30:07;;;;;;;1.10;0.40;;;12.90;39.50;;;;;;5011708;28;20664;-47
2023/12/29 06:32:33;;;;;;;1.42;1.05;;;13.00;39.40;;;;;;5011671;28;20684;-55
2023/12/29 06:34:59;;;;;;;0.90;0.30;;;13.00;39.10;;;;;;5011831;28;20194;-54
2023/12/29 06:37:25;;;;;;;1.10;0.70;;;12.90;38.90;;;;;;5011899;28;20636;-48
2023/12/29 06:39:51;;;;;;;0.90;0.50;;;12.90;38.70;;;;;;5011269;28;20210;-52
2023/12/29 06:42:16;;;;;;;1.33;1.23;;;12.80;38.10;;;;;;5011862;28;20179;-54
2023/12/29 06:44:42;;;;;;;1.10;0.77;;;12.80;38.20;;;;;;5011885;28;20254;-50
2023/12/29 06:47:09;;;;;;;0.90;0.40;;;12.90;38.40;;;;;;5011921;28;20218;-50
2023/12/29 06:49:35;;;;;;;1.10;0.63;;;12.90;37.70;;;;;;5013066;28;20217;-48
2023/12/29 06:52:01;;;;;;;0.90;0.40;;;12.90;37.20;;;;;;5015595;28;20619;-47
2023/12/29 06:54:27;;;;;;;0.95;0.55;;;12.90;37.20;;;;;;5015456;28;20178;-58
2023/12/29 06:56:53;;;;;;;1.10;0.50;;;12.90;37.50;;;;;;5015322;28;20540;-48
2023/12/29 06:59:19;;;;;;;1.47;0.60;;;12.80;37.20;;;;;;5015340;28;20177;-47
2023/12/29 07:01:46;;;;;;;1.00;0.60;;;12.90;37.30;;;;;;5015415;28;20182;-54
2023/12/29 07:04:12;;;;;;;1.27;0.73;;;13.00;37.10;;;;;;5015354;28;20183;-49
2023/12/29 07:06:38;;;;;;;0.90;0.55;;;12.90;37.20;;;;;;5015204;28;20175;-50
2023/12/29 07:09:04;;;;;;;1.67;1.57;;;12.90;37.40;;;;;;5015059;28;20186;-51
2023/12/29 07:11:30;;;;;;;1.52;0.80;;;13.00;37.40;;;;;;5014971;28;20187;-50
2023/12/29 07:13:56;;;;;;;1.37;1.20;;;13.10;37.30;;;;;;5015106;28;20675;-47
2023/12/29 07:16:22;;;;;;;1.10;0.80;;;13.10;37.20;;;;;;5015121;28;20452;-54
2023/12/29 07:18:48;;;;;;;1.10;0.68;;;13.10;37.30;;;;;;5014939;28;20937;-48
2023/12/29 07:21:16;;;;;;;1.10;0.80;;;13.10;37.60;;;;;;5014949;28;20285;-54
2023/12/29 07:23:42;;;;;;;1.10;0.70;;;13.00;37.20;;;;;;5014830;28;20456;-51
2023/12/29 07:26:08;;;;;;;1.00;0.68;;;13.10;37.50;;;;;;5014911;28;20240;-47
2023/12/29 07:28:34;;;;;;;1.00;0.60;;;13.10;37.50;;;;;;5014771;28;20253;-55
2023/12/29 07:31:00;;;;;;;1.50;0.50;;;13.10;37.30;;;;;;5014805;28;20657;-50
2023/12/29 07:33:26;;;;;;;0.90;0.35;;;13.10;37.50;;;;;;5014802;28;20809;-50
2023/12/29 07:35:52;;;;;;;1.53;1.00;;;13.20;37.50;;;;;;5014667;28;20268;-50
2023/12/29 07:38:18;;;;;;;0.90;0.40;;;13.20;37.60;;;;;;5014489;28;20417;-46
2023/12/29 07:40:44;;;;;;;1.48;0.82;;;13.10;37.40;;;;;;5014473;28;20479;-49
2023/12/29 07:43:10;;;;;;;1.87;0.60;;;13.20;37.40;;;;;;5014599;28;20651;-56
2023/12/29 07:45:37;;;;;;;0.80;0.30;;;13.10;37.70;;;;;;5014566;28;20186;-49
2023/12/29 07:48:03;;;;;;;1.10;0.77;;;13.10;37.30;;;;;;5014404;28;20437;-50
2023/12/29 07:50:29;;;;;;;1.42;0.80;;;13.10;37.70;;;;;;5014487;28;20248;-52
2023/12/29 07:52:55;;;;;;;1.20;0.73;;;13.20;37.60;;;;;;5014265;28;20206;-48
2023/12/29 07:55:21;;;;;;;1.10;0.70;;;13.30;37.60;;;;;;5014362;28;20437;-49
2023/12/29 07:57:48;;;;;;;0.93;0.50;;;13.30;37.30;;;;;;5014372;28;20182;-52
2023/12/29 08:00:17;;;;;;;1.23;0.70;;;13.20;37.80;;;;;;5013512;28;20992;-50
2023/12/29 08:02:42;;;;;;;2.55;1.10;;;13.30;37.50;;;;;;5013671;28;20178;-54
2023/12/29 08:05:08;;;;;;;1.23;1.13;;;13.40;37.50;;;;;;5014297;28;20179;-50
2023/12/29 08:07:36;;;;;;;1.00;0.52;;;13.50;37.60;;;;;;5014062;28;20594;-50
2023/12/29 08:10:04;;;;;;;1.00;0.60;;;13.50;37.10;;;;;;5013871;28;20214;-55
2023/12/29 08:12:30;;;;;;;1.00;0.50;;;13.60;37.30;;;;;;5014122;28;20245;-50
2023/12/29 08:14:56;;;;;;;1.00;0.63;;;13.60;37.00;;;;;;5014057;28;20199;-52
2023/12/29 08:17:22;;;;;;;2.03;1.10;;;13.60;37.00;;;;;;5014019;28;20182;-48
2023/12/29 08:19:48;;;;;;;0.90;0.30;;;13.60;37.50;;;;;;5013564;28;20577;-49
2023/12/29 08:22:13;;;;;;;1.10;0.60;;;13.70;37.50;;;;;;5014016;28;20413;-48
2023/12/29 08:24:43;;;;;;;2.13;0.90;;;13.80;37.00;;;;;;5013650;28;20266;-48
2023/12/29 08:27:10;;;;;;;1.77;1.00;;;13.80;37.20;;;;;;5013910;28;20207;-50
2023/12/29 08:29:36;;;;;;;1.58;0.95;;;13.90;37.20;;;;;;5013519;28;20285;-52
2023/12/29 08:32:02;;;;;;;1.48;1.02;;;14.00;36.90;;;;;;5013598;28;20202;-48
2023/12/29 08:34:28;;;;;;;3.23;1.20;;;14.00;36.90;;;;;;5013646;28;20189;-55
2023/12/29 08:36:54;;;;;;;1.33;0.70;;;14.10;36.40;;;;;;5013712;28;20855;-49
2023/12/29 08:39:19;;;;;;;2.50;2.30;;;14.10;36.70;;;;;;5013269;28;20756;-48
2023/12/29 08:41:46;;;;;;;1.40;1.10;;;14.10;36.90;;;;;;5013263;28;20225;-52
2023/12/29 08:44:12;;;;;;;1.10;0.60;;;14.10;36.60;;;;;;5013578;28;20263;-51
2023/12/29 08:46:38;;;;;;;1.00;0.70;;;14.10;36.90;;;;;;5013441;28;20673;-48
2023/12/29 08:49:04;;;;;;;1.00;0.53;;;14.00;36.70;;;;;;5013162;28;20171;-52
2023/12/29 08:51:29;;;;;;;1.10;0.87;;;14.00;37.10;;;;;;5013383;28;20190;-48
2023/12/29 08:53:55;;;;;;;1.00;0.50;;;14.10;36.90;;;;;;5013117;28;20536;-48
2023/12/29 08:56:21;;;;;;;1.00;0.50;;;14.10;36.90;;;;;;5013304;28;20171;-54
2023/12/29 08:58:46;;;;;;;1.30;0.80;;;14.20;37.30;;;;;;5012912;28;20170;-49
2023/12/29 09:01:12;;;;;;;1.30;0.73;;;14.30;37.00;;;;;;5013195;28;20603;-49
2023/12/29 09:03:38;;;;;;;1.00;0.60;;;14.30;36.60;;;;;;5013042;28;20816;-52
2023/12/29 09:06:04;;;;;;;0.95;0.50;;;14.40;36.10;;;;;;5013019;28;20229;-47
2023/12/29 09:08:30;;;;;;;1.00;0.65;;;14.30;36.50;;;;;;5013035;28;20228;-50
2023/12/29 09:10:56;;;;;;;1.00;0.53;;;14.40;36.20;;;;;;5012890;28;20210;-56
2023/12/29 09:13:25;;;;;;;1.30;0.60;;;14.50;36.50;;;;;;5012650;28;20548;-48
2023/12/29 09:15:50;;;;;;;1.20;0.57;;;14.50;35.90;;;;;;5012922;28;20497;-51
2023/12/29 09:18:16;;;;;;;0.93;0.40;;;14.50;36.10;;;;;;5012714;28;20267;-47
2023/12/29 09:20:42;;;;;;;1.00;0.40;;;14.60;35.90;;;;;;5012842;28;20749;-53
2023/12/29 09:23:08;;;;;;;1.20;0.67;;;14.60;35.80;;;;;;5012747;28;20189;-48
2023/12/29 09:25:34;;;;;;;1.10;0.82;;;14.60;35.80;;;;;;5012858;28;20417;-48
2023/12/29 09:27:59;;;;;;;0.90;0.40;;;14.70;35.30;;;;;;5012672;28;20260;-51
2023/12/29 09:30:25;;;;;;;1.20;0.73;;;14.70;36.20;;;;;;5012746;28;20198;-53
2023/12/29 09:32:51;;;;;;;1.20;0.90;;;14.70;36.20;;;;;;5012373;28;20252;-47
2023/12/29 09:35:17;;;;;;;2.08;0.77;;;14.70;35.70;;;;;;5012724;28;20249;-53
2023/12/29 09:37:43;;;;;;;1.10;0.77;;;14.70;35.90;;;;;;5013155;28;20608;-47
2023/12/29 09:40:10;;;;;;;1.10;0.77;;;14.80;35.90;;;;;;5032016;28;20213;-53
2023/12/29 09:42:38;;;;;;;1.10;0.80;;;14.90;35.60;;;;;;5032233;28;20423;-47
2023/12/29 09:45:10;;;;;;;2.15;0.80;;;14.90;35.70;;;;;;5032147;28;20181;-56
2023/12/29 09:47:39;;;;;;;1.70;0.52;;;15.00;35.60;;;;;;5032083;28;20178;-54
2023/12/29 09:50:07;;;;;;;1.48;0.77;;;15.10;35.90;;;;;;5031804;28;20823;-48
2023/12/29 09:52:33;;;;;;;1.10;0.73;;;15.30;34.90;;;;;;5031915;28;20197;-49
2023/12/29 09:55:00;;;;;;;2.22;0.98;;;15.30;35.40;;;;;;5031970;28;20193;-54
2023/12/29 09:57:27;;;;;;;1.35;0.80;;;15.40;34.40;;;;;;5031899;28;20251;-49
2023/12/29 09:59:54;;;;;;;1.38;0.70;;;15.50;35.00;;;;;;5031620;28;20205;-49
2023/12/29 10:02:22;;;;;;;2.45;1.70;;;15.50;34.60;;;;;;5031915;28;20205;-47
2023/12/29 10:04:48;;;;;;;1.30;1.20;;;15.50;35.00;;;;;;5031809;28;20185;-48
2023/12/29 10:07:22;;;;;;;4.40;0.97;;;15.40;34.20;;;;;;5031810;28;20181;-51
2023/12/29 10:09:51;;;;;;;0.90;0.45;;;15.30;34.70;;;;;;5013918;28;20200;-48
2023/12/29 10:12:19;;;;;;;3.78;1.70;;;15.30;34.70;;;;;;5031699;28;20201;-56
2023/12/29 10:15:09;;;;;;;1.20;0.80;;;15.20;35.30;;;;;;5031697;28;20178;-54
2023/12/29 10:17:56;;;;;;;1.00;0.55;;;15.30;35.50;;;;;;5031781;28;20182;-49
2023/12/29 10:20:37;;;;;;;1.05;0.77;;;15.20;35.00;;;;;;5031540;28;20563;-53
2023/12/29 10:23:12;;;;;;;2.10;1.23;;;15.20;35.20;;;;;;5012574;28;20663;-48
2023/12/29 10:25:39;;;;;;;1.60;0.75;;;15.30;35.40;;;;;;5015404;28;20185;-50
2023/12/29 10:28:06;;;;;;;0.95;0.40;;;15.20;35.00;;;;;;5015994;28;20186;-48
2023/12/29 10:30:32;;;;;;;1.20;0.90;;;15.30;35.30;;;;;;5015996;28;20870;-48
2023/12/29 10:33:00;;;;;;;6.03;1.65;;;15.30;35.30;;;;;;5015759;28;20226;-55
2023/12/29 10:35:26;;;;;;;1.25;1.13;;;15.30;34.50;;;;;;5015794;28;20174;-49
2023/12/29 10:37:52;;;;;;;1.90;1.02;;;15.10;35.50;;;;;;5015634;28;20660;-46
2023/12/29 10:40:19;;;;;;;1.17;0.70;;;15.10;35.90;;;;;;5015810;28;20293;-51
2023/12/29 10:43:05;;;;;;;1.17;0.73;;;15.30;35.00;;;;;;5015720;28;20448;-47
2023/12/29 10:45:30;;;;;;;1.58;1.05;;;15.50;35.00;;;;;;5015625;28;20660;-52
2023/12/29 10:47:56;;;;;;;2.70;0.77;;;15.60;34.60;;;;;;5015621;28;20240;-53
2023/12/29 10:50:22;;;;;;;1.50;1.17;;;15.70;34.90;;;;;;5015685;28;20210;-48
2023/12/29 10:52:48;;;;;;;1.10;0.60;;;16.00;34.00;;;;;;5015576;28;20273;-49
2023/12/29 10:55:14;;;;;;;0.90;0.50;;;16.10;33.90;;;;;;5015557;28;20170;-55
2023/12/29 10:57:40;;;;;;;1.40;0.90;;;16.40;34.20;;;;;;5015568;28;20652;-47
2023/12/29 11:00:07;;;;;;;1.90;0.85;;;16.60;33.90;;;;;;5015200;28;20457;-56
2023/12/29 11:02:34;;;;;;;1.10;0.90;;;16.80;32.20;;;;;;5015298;28;20175;-56
2023/12/29 11:05:04;;;;;;;2.25;1.55;;;17.00;32.60;;;;;;5015415;28;20202;-48
2023/12/29 11:07:37;;;;;;;1.65;0.98;;;17.00;32.00;;;;;;5015226;28;20179;-51
2023/12/29 11:10:04;;;;;;;1.10;0.88;;;17.10;31.80;;;;;;5014973;28;20199;-53
2023/12/29 11:12:33;;;;;;;1.10;0.70;;;17.20;31.90;;;;;;5015280;28;20206;-48
2023/12/29 11:15:01;;;;;;;1.00;0.47;;;17.50;31.90;;;;;;5015179;28;20517;-49
2023/12/29 11:17:29;;;;;;;1.20;0.60;;;17.60;32.10;;;;;;5015177;28;20174;-55
2023/12/29 11:19:57;;;;;;;1.10;0.85;;;17.50;30.90;;;;;;5014753;28;20563;-54
2023/12/29 11:22:24;;;;;;;1.25;0.88;;;17.50;31.00;;;;;;5015142;28;20183;-48
2023/12/29 11:24:50;;;;;;;1.55;0.88;;;17.30;30.90;;;;;;5014944;28;20192;-50
2023/12/29 11:27:16;;;;;;;1.00;0.57;;;17.20;31.60;;;;;;5015087;28;20183;-53
2023/12/29 11:29:42;;;;;;;1.02;0.63;;;17.00;31.50;;;;;;5014619;28;20206;-52
2023/12/29 11:32:18;;;;;;;1.77;1.42;;;16.80;32.20;;;;;;5014974;28;20203;-51
2023/12/29 11:34:52;;;;;;;1.45;0.73;;;16.70;32.20;;;;;;5014761;28;20181;-55
2023/12/29 11:38:02;;;;;;;1.10;0.90;;;17.10;32.60;;;;;;5014906;28;20182;-49
2023/12/29 11:40:41;;;;;;;1.10;0.68;;;17.50;31.50;;;;;;5001471;28;20711;-55
2023/12/29 11:43:14;;;;;;;1.27;0.60;;;17.60;31.50;;;;;;5039000;22;20228;-51
2023/12/29 11:45:40;;;;;;;3.10;1.00;;;17.70;30.90;;;;;;5054447;28;20568;-52
2023/12/29 11:48:06;;;;;;;2.03;0.70;;;17.70;30.60;;;;;;5059231;28;20408;-58
2023/12/29 11:50:43;;;;;;;3.70;1.52;;;17.70;30.90;;;;;;5034336;28;20536;-59
2023/12/29 11:53:09;;;;;;;1.20;0.88;;;17.70;31.50;;;;;;5046122;28;20217;-54
2023/12/29 11:55:37;;;;;;;1.70;1.58;;;17.60;30.70;;;;;;5054420;28;20169;-56
2023/12/29 11:58:07;;;;;;;1.45;1.08;;;17.40;31.40;;;;;;5054065;28;20596;-55
2023/12/29 12:00:43;;;;;;;1.40;1.02;;;17.20;31.10;;;;;;5054464;28;20198;-54
2023/12/29 12:03:28;;;;;;;2.70;1.20;;;17.10;32.20;;;;;;5036180;28;20197;-51
2023/12/29 12:05:57;;;;;;;1.00;0.45;;;17.10;31.70;;;;;;5054063;28;20229;-50
2023/12/29 12:08:28;;;;;;;1.65;1.55;;;16.90;32.10;;;;;;5045751;28;20173;-58
2023/12/29 12:10:54;;;;;;;1.00;0.55;;;17.00;32.40;;;;;;5054080;28;20189;-51
2023/12/29 12:13:45;;;;;;;1.65;0.93;;;17.10;32.00;;;;;;5053958;28;20205;-52
2023/12/29 12:16:50;;;;;;;1.40;0.65;;;17.00;32.20;;;;;;5054108;28;20243;-55
2023/12/29 12:19:18;;;;;;;0.90;0.40;;;16.80;32.50;;;;;;5024483;28;20654;-54
2023/12/29 12:21:50;;;;;;;4.78;1.40;;;16.70;32.60;;;;;;5053774;28;20185;-58
2023/12/29 12:24:19;;;;;;;1.65;0.60;;;16.80;32.20;;;;;;5053715;28;20209;-51
2023/12/29 12:26:45;;;;;;;1.42;0.80;;;16.70;32.30;;;;;;5053727;28;20177;-52
2023/12/29 12:29:13;;;;;;;1.20;0.80;;;16.70;32.40;;;;;;5053447;28;20176;-58
2023/12/29 12:32:07;;;;;;;1.42;1.13;;;16.80;32.60;;;;;;5053611;28;20174;-59
2023/12/29 12:34:39;;;;;;;2.55;0.82;;;17.20;32.60;;;;;;5043289;28;20198;-54
2023/12/29 12:37:05;;;;;;;1.35;1.10;;;17.30;31.90;;;;;;5053145;28;20180;-56
2023/12/29 12:39:41;;;;;;;1.00;0.50;;;17.50;31.90;;;;;;5053317;28;20181;-54
2023/12/29 12:42:06;;;;;;;1.10;0.80;;;17.50;31.40;;;;;;5053339;28;20173;-54
2023/12/29 12:44:32;;;;;;;1.70;1.10;;;17.60;31.40;;;;;;5053049;28;20582;-56
2023/12/29 12:47:06;;;;;;;2.03;1.30;;;17.90;31.70;;;;;;5044213;28;20177;-52
2023/12/29 12:49:31;;;;;;;1.10;0.80;;;18.20;30.80;;;;;;5053145;28;20193;-51